sensor_id;sensor_type;location;lat;lon;timestamp;temperature;humidity
6178;DHT22;3122;48.208;11.174;2023-04-03T00:03:03;2.70;1.00
6178;DHT22;3122;48.208;11.174;2023-04-03T00:08:03;2.80;1.00
6178;DHT22;3122;48.208;11.174;2023-04-03T00:13:08;2.70;1.00
6178;DHT22;3122;48.208;11.174;2023-04-03T00:18:09;2.80;1.00
6178;DHT22;3122;48.208;11.174;2023-04-03T00:23:10;2.70;1.00
6178;DHT22;3122;48.208;11.174;2023-04-03T00:28:10;2.80;1.00
6178;DHT22;3122;48.208;11.174;2023-04-03T00:33:12;2.80;1.00
6178;DHT22;3122;48.208;11.174;2023-04-03T00:38:13;2.60;1.00
6178;DHT22;3122;48.208;11.174;2023-04-03T00:43:25;2.50;1.00
6178;DHT22;3122;48.208;11.174;2023-04-03T00:48:34;2.50;1.00
6178;DHT22;3122;48.208;11.174;2023-04-03T00:53:49;2.50;1.00
6178;DHT22;3122;48.208;11.174;2023-04-03T00:58:52;2.60;1.00
6178;DHT22;3122;48.208;11.174;2023-04-03T01:03:54;2.60;1.00
6178;DHT22;3122;48.208;11.174;2023-04-03T01:08:55;2.60;1.00
6178;DHT22;3122;48.208;11.174;2023-04-03T01:13:56;2.50;1.00
6178;DHT22;3122;48.208;11.174;2023-04-03T01:18:57;2.50;1.00
6178;DHT22;3122;48.208;11.174;2023-04-03T01:29:28;2.50;1.00
6178;DHT22;3122;48.208;11.174;2023-04-03T01:34:29;2.30;1.00
6178;DHT22;3122;48.208;11.174;2023-04-03T01:39:30;2.30;1.00
6178;DHT22;3122;48.208;11.174;2023-04-03T01:44:30;2.30;1.00
6178;DHT22;3122;48.208;11.174;2023-04-03T01:49:31;2.30;1.00
6178;DHT22;3122;48.208;11.174;2023-04-03T01:54:31;2.20;1.00
6178;DHT22;3122;48.208;11.174;2023-04-03T01:59:32;2.30;1.00
6178;DHT22;3122;48.208;11.174;2023-04-03T02:04:33;2.20;1.00
6178;DHT22;3122;48.208;11.174;2023-04-03T02:09:33;2.20;1.00
6178;DHT22;3122;48.208;11.174;2023-04-03T02:14:34;2.10;1.00
6178;DHT22;3122;48.208;11.174;2023-04-03T02:19:35;2.20;1.00
6178;DHT22;3122;48.208;11.174;2023-04-03T02:24:36;2.20;1.00
6178;DHT22;3122;48.208;11.174;2023-04-03T02:29:36;2.20;1.00
6178;DHT22;3122;48.208;11.174;2023-04-03T02:34:37;2.20;1.00
6178;DHT22;3122;48.208;11.174;2023-04-03T02:39:37;2.20;1.00
6178;DHT22;3122;48.208;11.174;2023-04-03T02:44:38;2.20;1.00
6178;DHT22;3122;48.208;11.174;2023-04-03T02:49:39;2.20;1.00
6178;DHT22;3122;48.208;11.174;2023-04-03T02:54:39;2.20;1.00
6178;DHT22;3122;48.208;11.174;2023-04-03T02:59:40;2.10;1.00
6178;DHT22;3122;48.208;11.174;2023-04-03T03:04:41;2.30;1.00
6178;DHT22;3122;48.208;11.174;2023-04-03T03:09:41;2.20;1.00
6178;DHT22;3122;48.208;11.174;2023-04-03T03:14:42;2.30;1.00
6178;DHT22;3122;48.208;11.174;2023-04-03T03:19:43;2.20;1.00
6178;DHT22;3122;48.208;11.174;2023-04-03T03:24:44;2.30;1.00
6178;DHT22;3122;48.208;11.174;2023-04-03T03:29:45;2.40;1.00
6178;DHT22;3122;48.208;11.174;2023-04-03T03:34:45;2.30;1.00
6178;DHT22;3122;48.208;11.174;2023-04-03T03:39:46;2.30;1.00
6178;DHT22;3122;48.208;11.174;2023-04-03T03:44:46;2.30;1.00
6178;DHT22;3122;48.208;11.174;2023-04-03T03:49:47;2.20;1.00
6178;DHT22;3122;48.208;11.174;2023-04-03T03:54:47;2.30;1.00
6178;DHT22;3122;48.208;11.174;2023-04-03T03:59:48;2.20;1.00
6178;DHT22;3122;48.208;11.174;2023-04-03T04:04:49;2.20;1.00
6178;DHT22;3122;48.208;11.174;2023-04-03T04:09:50;2.20;1.00
6178;DHT22;3122;48.208;11.174;2023-04-03T04:14:50;2.30;1.00
6178;DHT22;3122;48.208;11.174;2023-04-03T04:19:51;2.40;1.00
6178;DHT22;3122;48.208;11.174;2023-04-03T04:24:51;2.20;1.00
6178;DHT22;3122;48.208;11.174;2023-04-03T04:29:52;2.20;1.00
6178;DHT22;3122;48.208;11.174;2023-04-03T04:34:52;2.20;1.00
6178;DHT22;3122;48.208;11.174;2023-04-03T04:39:53;2.30;1.00
6178;DHT22;3122;48.208;11.174;2023-04-03T04:44:53;2.30;1.00
6178;DHT22;3122;48.208;11.174;2023-04-03T04:49:54;2.30;1.00
6178;DHT22;3122;48.208;11.174;2023-04-03T04:54:54;2.30;1.00
6178;DHT22;3122;48.208;11.174;2023-04-03T04:59:55;2.20;1.00
6178;DHT22;3122;48.208;11.174;2023-04-03T05:04:56;2.10;1.00
6178;DHT22;3122;48.208;11.174;2023-04-03T05:09:56;2.20;1.00
6178;DHT22;3122;48.208;11.174;2023-04-03T05:14:57;2.20;1.00
6178;DHT22;3122;48.208;11.174;2023-04-03T05:19:57;2.10;1.00
6178;DHT22;3122;48.208;11.174;2023-04-03T05:24:58;2.10;1.00
6178;DHT22;3122;48.208;11.174;2023-04-03T05:29:58;2.10;1.00
6178;DHT22;3122;48.208;11.174;2023-04-03T05:35:00;2.20;1.00
6178;DHT22;3122;48.208;11.174;2023-04-03T05:40:00;2.20;1.00
6178;DHT22;3122;48.208;11.174;2023-04-03T05:45:01;2.20;1.00
6178;DHT22;3122;48.208;11.174;2023-04-03T05:50:02;2.30;1.00
6178;DHT22;3122;48.208;11.174;2023-04-03T05:55:04;2.20;1.00
6178;DHT22;3122;48.208;11.174;2023-04-03T06:00:06;2.20;1.00
6178;DHT22;3122;48.208;11.174;2023-04-03T06:05:07;2.20;1.00
6178;DHT22;3122;48.208;11.174;2023-04-03T06:10:10;2.30;1.00
6178;DHT22;3122;48.208;11.174;2023-04-03T06:15:11;2.20;1.00
6178;DHT22;3122;48.208;11.174;2023-04-03T06:20:12;2.10;1.00
6178;DHT22;3122;48.208;11.174;2023-04-03T06:25:12;2.20;1.00
6178;DHT22;3122;48.208;11.174;2023-04-03T06:30:13;2.30;1.00
6178;DHT22;3122;48.208;11.174;2023-04-03T06:35:14;2.40;1.00
6178;DHT22;3122;48.208;11.174;2023-04-03T06:40:19;2.30;1.00
6178;DHT22;3122;48.208;11.174;2023-04-03T06:45:21;2.50;1.00
6178;DHT22;3122;48.208;11.174;2023-04-03T06:50:22;2.50;1.00
6178;DHT22;3122;48.208;11.174;2023-04-03T06:55:23;2.60;1.00
6178;DHT22;3122;48.208;11.174;2023-04-03T07:00:23;2.70;1.00
6178;DHT22;3122;48.208;11.174;2023-04-03T07:05:25;2.60;1.00
6178;DHT22;3122;48.208;11.174;2023-04-03T07:10:26;2.60;1.00
6178;DHT22;3122;48.208;11.174;2023-04-03T07:15:27;2.60;1.00
6178;DHT22;3122;48.208;11.174;2023-04-03T07:20:28;2.70;1.00
6178;DHT22;3122;48.208;11.174;2023-04-03T07:25:29;2.90;1.00
6178;DHT22;3122;48.208;11.174;2023-04-03T07:30:30;3.00;1.00
6178;DHT22;3122;48.208;11.174;2023-04-03T07:35:31;3.00;1.00
6178;DHT22;3122;48.208;11.174;2023-04-03T07:40:32;3.20;1.00
6178;DHT22;3122;48.208;11.174;2023-04-03T07:45:34;3.20;1.00
6178;DHT22;3122;48.208;11.174;2023-04-03T07:50:35;3.30;1.00
6178;DHT22;3122;48.208;11.174;2023-04-03T07:55:36;3.30;1.00
6178;DHT22;3122;48.208;11.174;2023-04-03T08:00:43;3.10;1.00
6178;DHT22;3122;48.208;11.174;2023-04-03T08:05:46;3.30;1.00
6178;DHT22;3122;48.208;11.174;2023-04-03T08:10:52;3.30;1.00
6178;DHT22;3122;48.208;11.174;2023-04-03T08:15:53;3.40;1.00
6178;DHT22;3122;48.208;11.174;2023-04-03T08:20:53;3.40;1.00
6178;DHT22;3122;48.208;11.174;2023-04-03T08:25:54;3.40;1.00
6178;DHT22;3122;48.208;11.174;2023-04-03T08:30:55;3.40;1.00
6178;DHT22;3122;48.208;11.174;2023-04-03T08:35:56;3.60;1.00
6178;DHT22;3122;48.208;11.174;2023-04-03T08:52:11;3.80;1.00
6178;DHT22;3122;48.208;11.174;2023-04-03T08:57:12;3.90;1.00
6178;DHT22;3122;48.208;11.174;2023-04-03T09:02:30;4.00;1.00
6178;DHT22;3122;48.208;11.174;2023-04-03T09:07:39;4.20;1.00
6178;DHT22;3122;48.208;11.174;2023-04-03T09:12:51;4.30;1.00
6178;DHT22;3122;48.208;11.174;2023-04-03T09:18:02;4.30;1.00
6178;DHT22;3122;48.208;11.174;2023-04-03T09:23:18;4.40;1.00
6178;DHT22;3122;48.208;11.174;2023-04-03T09:28:19;4.20;1.00
6178;DHT22;3122;48.208;11.174;2023-04-03T09:33:21;4.30;1.00
6178;DHT22;3122;48.208;11.174;2023-04-03T09:38:22;4.40;1.00
6178;DHT22;3122;48.208;11.174;2023-04-03T09:43:27;4.60;1.00
6178;DHT22;3122;48.208;11.174;2023-04-03T09:48:28;4.80;1.00
6178;DHT22;3122;48.208;11.174;2023-04-03T09:58:40;4.90;1.00
6178;DHT22;3122;48.208;11.174;2023-04-03T10:03:41;4.90;1.00
6178;DHT22;3122;48.208;11.174;2023-04-03T10:09:03;4.90;1.00
6178;DHT22;3122;48.208;11.174;2023-04-03T10:14:17;4.90;1.00
6178;DHT22;3122;48.208;11.174;2023-04-03T10:24:37;5.10;1.00
6178;DHT22;3122;48.208;11.174;2023-04-03T10:41:01;4.60;1.00
6178;DHT22;3122;48.208;11.174;2023-04-03T10:46:05;4.40;1.00
6178;DHT22;3122;48.208;11.174;2023-04-03T10:56:39;4.50;1.00
6178;DHT22;3122;48.208;11.174;2023-04-03T11:01:42;4.30;1.00
6178;DHT22;3122;48.208;11.174;2023-04-03T11:06:52;4.30;1.00
6178;DHT22;3122;48.208;11.174;2023-04-03T11:12:09;4.40;1.00
6178;DHT22;3122;48.208;11.174;2023-04-03T11:17:15;4.40;1.00
6178;DHT22;3122;48.208;11.174;2023-04-03T11:22:27;4.40;1.00
6178;DHT22;3122;48.208;11.174;2023-04-03T11:27:33;4.40;1.00
6178;DHT22;3122;48.208;11.174;2023-04-03T11:37:51;4.40;1.00
6178;DHT22;3122;48.208;11.174;2023-04-03T11:53:36;4.70;1.00
6178;DHT22;3122;48.208;11.174;2023-04-03T11:58:37;5.00;1.00
6178;DHT22;3122;48.208;11.174;2023-04-03T12:08:45;4.50;1.00
6178;DHT22;3122;48.208;11.174;2023-04-03T12:18:54;4.30;1.00
6178;DHT22;3122;48.208;11.174;2023-04-03T12:29:24;4.30;1.00
6178;DHT22;3122;48.208;11.174;2023-04-03T12:49:57;5.00;1.00
6178;DHT22;3122;48.208;11.174;2023-04-03T12:55:00;5.50;1.00
6178;DHT22;3122;48.208;11.174;2023-04-03T13:00:31;5.80;1.00
6178;DHT22;3122;48.208;11.174;2023-04-03T13:05:34;5.90;1.00
6178;DHT22;3122;48.208;11.174;2023-04-03T13:11:07;5.90;1.00
6178;DHT22;3122;48.208;11.174;2023-04-03T13:16:11;5.70;1.00
6178;DHT22;3122;48.208;11.174;2023-04-03T13:21:17;5.60;1.00
6178;DHT22;3122;48.208;11.174;2023-04-03T13:26:20;5.60;1.00
6178;DHT22;3122;48.208;11.174;2023-04-03T13:31:34;5.60;1.00
6178;DHT22;3122;48.208;11.174;2023-04-03T13:36:50;5.60;1.00
6178;DHT22;3122;48.208;11.174;2023-04-03T13:41:57;5.50;1.00
6178;DHT22;3122;48.208;11.174;2023-04-03T13:47:01;5.70;1.00
6178;DHT22;3122;48.208;11.174;2023-04-03T13:52:38;5.70;1.00
6178;DHT22;3122;48.208;11.174;2023-04-03T13:57:49;5.90;1.00
6178;DHT22;3122;48.208;11.174;2023-04-03T14:02:54;5.70;1.00
6178;DHT22;3122;48.208;11.174;2023-04-03T14:07:56;5.50;1.00
6178;DHT22;3122;48.208;11.174;2023-04-03T14:12:57;5.40;1.00
6178;DHT22;3122;48.208;11.174;2023-04-03T14:17:58;5.10;1.00
6178;DHT22;3122;48.208;11.174;2023-04-03T14:22:59;5.10;1.00
6178;DHT22;3122;48.208;11.174;2023-04-03T14:27:59;5.30;1.00
6178;DHT22;3122;48.208;11.174;2023-04-03T14:33:00;5.50;1.00
6178;DHT22;3122;48.208;11.174;2023-04-03T14:38:01;5.60;1.00
6178;DHT22;3122;48.208;11.174;2023-04-03T14:43:01;5.80;1.00
6178;DHT22;3122;48.208;11.174;2023-04-03T14:48:03;5.70;1.00
6178;DHT22;3122;48.208;11.174;2023-04-03T14:53:03;5.80;1.00
6178;DHT22;3122;48.208;11.174;2023-04-03T14:58:05;5.80;1.00
6178;DHT22;3122;48.208;11.174;2023-04-03T15:03:05;5.90;1.00
6178;DHT22;3122;48.208;11.174;2023-04-03T15:13:20;6.00;1.00
6178;DHT22;3122;48.208;11.174;2023-04-03T15:18:25;6.10;1.00
6178;DHT22;3122;48.208;11.174;2023-04-03T15:23:26;6.00;1.00
6178;DHT22;3122;48.208;11.174;2023-04-03T15:28:30;5.80;1.00
6178;DHT22;3122;48.208;11.174;2023-04-03T15:33:32;5.60;1.00
6178;DHT22;3122;48.208;11.174;2023-04-03T15:38:33;5.80;1.00
6178;DHT22;3122;48.208;11.174;2023-04-03T15:43:33;6.00;1.00
6178;DHT22;3122;48.208;11.174;2023-04-03T15:48:36;6.60;1.00
6178;DHT22;3122;48.208;11.174;2023-04-03T15:53:37;6.90;1.00
6178;DHT22;3122;48.208;11.174;2023-04-03T15:58:37;7.20;1.00
6178;DHT22;3122;48.208;11.174;2023-04-03T16:03:40;6.80;1.00
6178;DHT22;3122;48.208;11.174;2023-04-03T16:08:46;7.20;1.00
6178;DHT22;3122;48.208;11.174;2023-04-03T16:13:48;7.40;1.00
6178;DHT22;3122;48.208;11.174;2023-04-03T16:18:49;7.00;1.00
6178;DHT22;3122;48.208;11.174;2023-04-03T16:23:50;7.30;1.00
6178;DHT22;3122;48.208;11.174;2023-04-03T16:28:51;7.40;1.00
6178;DHT22;3122;48.208;11.174;2023-04-03T16:33:51;6.80;1.00
6178;DHT22;3122;48.208;11.174;2023-04-03T16:38:52;6.30;1.00
6178;DHT22;3122;48.208;11.174;2023-04-03T16:43:53;6.40;1.00
6178;DHT22;3122;48.208;11.174;2023-04-03T16:48:54;6.50;1.00
6178;DHT22;3122;48.208;11.174;2023-04-03T16:53:54;6.20;1.00
6178;DHT22;3122;48.208;11.174;2023-04-03T16:58:55;5.30;1.00
6178;DHT22;3122;48.208;11.174;2023-04-03T17:03:56;5.30;1.00
6178;DHT22;3122;48.208;11.174;2023-04-03T17:08:57;5.70;1.00
6178;DHT22;3122;48.208;11.174;2023-04-03T17:13:59;5.70;1.00
6178;DHT22;3122;48.208;11.174;2023-04-03T17:19:00;4.60;1.00
6178;DHT22;3122;48.208;11.174;2023-04-03T17:24:03;4.20;1.00
6178;DHT22;3122;48.208;11.174;2023-04-03T17:29:08;4.00;1.00
6178;DHT22;3122;48.208;11.174;2023-04-03T17:34:10;3.80;1.00
6178;DHT22;3122;48.208;11.174;2023-04-03T17:39:13;3.70;1.00
6178;DHT22;3122;48.208;11.174;2023-04-03T17:44:15;3.60;1.00
6178;DHT22;3122;48.208;11.174;2023-04-03T17:49:16;3.40;1.00
6178;DHT22;3122;48.208;11.174;2023-04-03T17:54:18;3.40;1.00
6178;DHT22;3122;48.208;11.174;2023-04-03T17:59:20;3.30;1.00
6178;DHT22;3122;48.208;11.174;2023-04-03T18:04:21;3.40;1.00
6178;DHT22;3122;48.208;11.174;2023-04-03T18:09:26;3.30;1.00
6178;DHT22;3122;48.208;11.174;2023-04-03T18:14:28;3.20;1.00
6178;DHT22;3122;48.208;11.174;2023-04-03T18:19:30;2.90;1.00
6178;DHT22;3122;48.208;11.174;2023-04-03T18:24:34;3.10;1.00
6178;DHT22;3122;48.208;11.174;2023-04-03T18:29:37;2.90;1.00
6178;DHT22;3122;48.208;11.174;2023-04-03T18:34:39;2.80;1.00
6178;DHT22;3122;48.208;11.174;2023-04-03T18:39:40;2.70;1.00
6178;DHT22;3122;48.208;11.174;2023-04-03T18:44:44;2.70;1.00
6178;DHT22;3122;48.208;11.174;2023-04-03T18:49:47;2.80;1.00
6178;DHT22;3122;48.208;11.174;2023-04-03T18:54:48;2.60;1.00
6178;DHT22;3122;48.208;11.174;2023-04-03T18:59:48;2.50;1.00
6178;DHT22;3122;48.208;11.174;2023-04-03T19:04:50;2.40;1.00
6178;DHT22;3122;48.208;11.174;2023-04-03T19:09:52;2.30;1.00
6178;DHT22;3122;48.208;11.174;2023-04-03T19:14:53;2.20;1.00
6178;DHT22;3122;48.208;11.174;2023-04-03T19:19:54;2.10;1.00
6178;DHT22;3122;48.208;11.174;2023-04-03T19:24:55;2.00;1.00
6178;DHT22;3122;48.208;11.174;2023-04-03T19:29:56;2.00;1.00
6178;DHT22;3122;48.208;11.174;2023-04-03T19:34:58;2.20;1.00
6178;DHT22;3122;48.208;11.174;2023-04-03T19:39:59;2.20;1.00
6178;DHT22;3122;48.208;11.174;2023-04-03T19:45:00;2.10;1.00
6178;DHT22;3122;48.208;11.174;2023-04-03T19:50:01;2.20;1.00
6178;DHT22;3122;48.208;11.174;2023-04-03T19:55:03;2.00;1.00
6178;DHT22;3122;48.208;11.174;2023-04-03T20:00:04;1.80;1.00
6178;DHT22;3122;48.208;11.174;2023-04-03T20:05:07;1.90;1.00
6178;DHT22;3122;48.208;11.174;2023-04-03T20:10:09;1.80;1.00
6178;DHT22;3122;48.208;11.174;2023-04-03T20:15:11;1.80;1.00
6178;DHT22;3122;48.208;11.174;2023-04-03T20:20:14;1.70;1.00
6178;DHT22;3122;48.208;11.174;2023-04-03T20:25:16;1.70;1.00
6178;DHT22;3122;48.208;11.174;2023-04-03T20:30:16;1.60;1.00
6178;DHT22;3122;48.208;11.174;2023-04-03T20:35:17;1.60;1.00
6178;DHT22;3122;48.208;11.174;2023-04-03T20:40:19;1.50;1.00
6178;DHT22;3122;48.208;11.174;2023-04-03T20:45:20;1.40;1.00
6178;DHT22;3122;48.208;11.174;2023-04-03T20:50:21;1.50;1.00
6178;DHT22;3122;48.208;11.174;2023-04-03T20:55:22;1.40;1.00
6178;DHT22;3122;48.208;11.174;2023-04-03T21:00:23;1.30;1.00
6178;DHT22;3122;48.208;11.174;2023-04-03T21:05:24;1.30;1.00
6178;DHT22;3122;48.208;11.174;2023-04-03T21:21:17;0.60;1.00
6178;DHT22;3122;48.208;11.174;2023-04-03T21:26:22;0.60;1.00
6178;DHT22;3122;48.208;11.174;2023-04-03T21:36:48;0.40;1.00
6178;DHT22;3122;48.208;11.174;2023-04-03T21:41:49;0.30;1.00
6178;DHT22;3122;48.208;11.174;2023-04-03T21:46:53;0.30;1.00
6178;DHT22;3122;48.208;11.174;2023-04-03T21:51:55;0.30;1.00
6178;DHT22;3122;48.208;11.174;2023-04-03T21:56:55;0.30;1.00
6178;DHT22;3122;48.208;11.174;2023-04-03T22:01:56;0.20;1.00
6178;DHT22;3122;48.208;11.174;2023-04-03T22:06:57;0.20;1.00
6178;DHT22;3122;48.208;11.174;2023-04-03T22:11:57;0.30;1.00
6178;DHT22;3122;48.208;11.174;2023-04-03T22:16:58;0.50;1.00
6178;DHT22;3122;48.208;11.174;2023-04-03T22:21:59;0.30;1.00
6178;DHT22;3122;48.208;11.174;2023-04-03T22:27:01;0.30;1.00
6178;DHT22;3122;48.208;11.174;2023-04-03T22:32:02;0.20;1.00
6178;DHT22;3122;48.208;11.174;2023-04-03T22:37:02;0.20;1.00
6178;DHT22;3122;48.208;11.174;2023-04-03T22:42:03;0.20;1.00
6178;DHT22;3122;48.208;11.174;2023-04-03T22:47:05;0.10;1.00
6178;DHT22;3122;48.208;11.174;2023-04-03T22:52:05;-0.10;1.00
6178;DHT22;3122;48.208;11.174;2023-04-03T22:57:06;0.10;1.00
6178;DHT22;3122;48.208;11.174;2023-04-03T23:02:08;-0.20;1.00
6178;DHT22;3122;48.208;11.174;2023-04-03T23:07:09;-0.10;1.00
6178;DHT22;3122;48.208;11.174;2023-04-03T23:12:10;-0.10;1.00
6178;DHT22;3122;48.208;11.174;2023-04-03T23:17:11;-0.20;1.00
6178;DHT22;3122;48.208;11.174;2023-04-03T23:22:11;-0.30;1.00
6178;DHT22;3122;48.208;11.174;2023-04-03T23:27:14;-0.20;1.00
6178;DHT22;3122;48.208;11.174;2023-04-03T23:32:15;-0.30;1.00
6178;DHT22;3122;48.208;11.174;2023-04-03T23:37:15;-0.50;1.00
6178;DHT22;3122;48.208;11.174;2023-04-03T23:42:16;-0.40;1.00
6178;DHT22;3122;48.208;11.174;2023-04-03T23:47:17;-0.40;1.00
6178;DHT22;3122;48.208;11.174;2023-04-03T23:52:18;-0.40;1.00
6178;DHT22;3122;48.208;11.174;2023-04-03T23:57:18;-0.50;1.00
